Time;durP1;ratioP1;P1;durP2;ratioP2;P2;SDS_P1;SDS_P2;PMS_P1;PMS_P2;Temp;Humidity;BMP_temperature;BMP_pressure;BME280_temperature;BME280_humidity;BME280_pressure;Samples;Min_cycle;Max_cycle;Signal;HPM_P1;HPM_P2
2021/11/18 00:00:36;;;;;;;12.57;10.37;;;5.90;99.90;;;;;;5010819;28;20255;-65
2021/11/18 00:03:03;;;;;;;10.40;9.30;;;5.80;99.90;;;;;;5010319;28;20191;-67
2021/11/18 00:05:29;;;;;;;12.77;9.63;;;5.90;99.90;;;;;;5010585;28;20203;-65
2021/11/18 00:07:55;;;;;;;10.00;8.83;;;6.00;99.90;;;;;;4995526;28;20587;-66
2021/11/18 00:10:30;;;;;;;11.10;10.00;;;6.00;99.90;;;;;;4992738;28;20184;-65
2021/11/18 00:12:59;;;;;;;10.53;9.43;;;6.00;99.90;;;;;;4990119;28;20177;-67
2021/11/18 00:15:26;;;;;;;10.60;8.87;;;6.10;99.90;;;;;;4991716;28;20204;-66
2021/11/18 00:17:58;;;;;;;10.33;9.23;;;6.10;99.90;;;;;;4990640;28;20173;-66
2021/11/18 00:20:26;;;;;;;11.30;9.83;;;6.00;99.90;;;;;;4990103;28;20213;-67
2021/11/18 00:22:53;;;;;;;10.17;9.10;;;5.90;99.90;;;;;;4990631;28;20177;-66
2021/11/18 00:25:18;;;;;;;10.93;8.97;;;5.90;99.90;;;;;;4991326;28;20763;-67
2021/11/18 00:27:44;;;;;;;11.00;9.50;;;6.00;99.90;;;;;;4990823;28;20256;-66
2021/11/18 00:30:11;;;;;;;11.37;9.83;;;6.00;99.90;;;;;;4990546;28;20181;-65
2021/11/18 00:32:37;;;;;;;13.13;9.20;;;6.10;99.90;;;;;;4990599;28;20173;-67
2021/11/18 00:35:04;;;;;;;9.83;8.83;;;6.20;99.90;;;;;;4990586;28;20247;-67
2021/11/18 00:37:30;;;;;;;11.43;9.30;;;6.20;99.90;;;;;;4990785;28;20643;-67
2021/11/18 00:39:55;;;;;;;12.33;9.47;;;5.70;99.90;;;;;;4990424;28;20247;-66
2021/11/18 00:42:21;;;;;;;13.50;9.73;;;6.20;99.90;;;;;;4991553;28;20212;-66
2021/11/18 00:44:47;;;;;;;11.10;9.33;;;6.20;99.90;;;;;;4991680;28;20190;-66
2021/11/18 00:47:12;;;;;;;11.07;9.40;;;6.10;99.90;;;;;;4994128;28;20169;-66
2021/11/18 00:49:38;;;;;;;10.90;8.87;;;6.20;99.90;;;;;;4994296;28;20169;-67
2021/11/18 00:52:04;;;;;;;9.87;8.80;;;6.20;99.90;;;;;;4993974;28;20173;-66
2021/11/18 00:54:29;;;;;;;11.37;9.50;;;6.30;99.90;;;;;;4994148;28;20197;-66
2021/11/18 00:56:58;;;;;;;11.27;9.23;;;6.40;99.90;;;;;;4993966;28;20231;-65
2021/11/18 00:59:24;;;;;;;9.20;8.10;;;6.50;99.90;;;;;;4994132;28;20676;-67
2021/11/18 01:01:51;;;;;;;9.80;8.67;;;6.60;99.90;;;;;;4993798;28;20273;-68
2021/11/18 01:04:19;;;;;;;10.53;9.13;;;6.70;99.90;;;;;;4994028;28;20196;-65
2021/11/18 01:06:46;;;;;;;9.93;8.63;;;6.70;99.90;;;;;;4993677;28;20177;-66
2021/11/18 01:09:12;;;;;;;9.60;8.60;;;6.60;99.90;;;;;;4992506;28;20185;-67
2021/11/18 01:11:38;;;;;;;9.73;8.73;;;6.50;99.90;;;;;;4992780;28;20187;-67
2021/11/18 01:14:07;;;;;;;10.33;8.93;;;6.50;99.90;;;;;;4992816;28;20209;-67
2021/11/18 01:16:36;;;;;;;12.00;9.57;;;6.50;99.90;;;;;;4994859;28;20185;-67
2021/11/18 01:19:03;;;;;;;10.50;9.37;;;6.60;99.90;;;;;;4993210;28;20196;-65
2021/11/18 01:21:29;;;;;;;10.07;8.97;;;6.60;99.90;;;;;;4993715;28;20539;-67
2021/11/18 01:23:55;;;;;;;10.20;9.07;;;6.50;99.90;;;;;;4993047;28;20207;-67
2021/11/18 01:26:21;;;;;;;11.70;9.50;;;6.40;99.90;;;;;;4993606;28;20181;-66
2021/11/18 01:28:48;;;;;;;10.10;8.83;;;6.50;99.90;;;;;;4993597;28;20173;-65
2021/11/18 01:31:15;;;;;;;10.93;9.33;;;6.40;99.90;;;;;;4995377;28;20312;-67
2021/11/18 01:33:41;;;;;;;10.27;9.03;;;6.50;99.90;;;;;;4994079;28;20185;-66
2021/11/18 01:36:08;;;;;;;12.73;9.90;;;8.00;99.90;;;;;;4994363;28;20626;-67
2021/11/18 01:38:35;;;;;;;11.63;9.27;;;6.30;99.90;;;;;;4994310;28;20255;-64
2021/11/18 01:41:10;;;;;;;10.90;8.70;;;6.30;99.90;;;;;;4992814;28;20177;-67
2021/11/18 01:43:41;;;;;;;10.53;9.43;;;6.40;99.90;;;;;;4993246;28;20179;-65
2021/11/18 01:46:10;;;;;;;10.50;9.30;;;6.50;99.90;;;;;;4992945;28;20165;-68
2021/11/18 01:48:36;;;;;;;11.37;9.30;;;6.50;99.90;;;;;;4994258;28;20259;-66
2021/11/18 01:51:04;;;;;;;11.23;8.93;;;6.70;99.90;;;;;;4993033;28;20551;-66
2021/11/18 01:53:36;;;;;;;11.17;9.27;;;6.30;99.90;;;;;;4993098;28;20220;-66
2021/11/18 01:56:24;;;;;;;10.77;9.37;;;6.40;99.90;;;;;;4992410;28;20648;-67
2021/11/18 01:58:54;;;;;;;10.47;9.33;;;6.40;99.90;;;;;;4993492;28;20211;-66
2021/11/18 02:01:20;;;;;;;11.97;10.07;;;6.40;99.90;;;;;;4993319;28;20169;-67
2021/11/18 02:03:47;;;;;;;10.63;9.53;;;6.60;99.90;;;;;;4993636;28;20588;-65
2021/11/18 02:06:28;;;;;;;11.63;9.83;;;6.70;99.90;;;;;;4992916;28;20174;-66
2021/11/18 02:08:54;;;;;;;11.73;9.63;;;6.60;99.90;;;;;;4992788;28;20184;-65
2021/11/18 02:11:28;;;;;;;11.57;9.37;;;6.50;99.90;;;;;;4992559;28;20656;-66
2021/11/18 02:13:55;;;;;;;11.10;9.87;;;6.50;99.90;;;;;;4991923;28;20250;-67
2021/11/18 02:16:22;;;;;;;11.80;9.80;;;6.50;99.90;;;;;;4991487;28;20175;-67
2021/11/18 02:18:48;;;;;;;10.30;9.10;;;6.50;99.90;;;;;;4992567;28;20611;-67
2021/11/18 02:21:15;;;;;;;13.93;9.30;;;6.60;99.90;;;;;;4991513;28;20173;-65
2021/11/18 02:23:56;;;;;;;11.73;10.07;;;6.60;99.90;;;;;;4991768;28;20232;-66
2021/11/18 02:26:24;;;;;;;14.30;9.33;;;6.70;99.90;;;;;;4992328;28;20192;-67
2021/11/18 02:28:52;;;;;;;9.90;8.90;;;6.70;99.90;;;;;;4992320;28;20205;-65
2021/11/18 02:31:28;;;;;;;11.10;9.90;;;6.60;99.90;;;;;;4992282;28;20173;-66
2021/11/18 02:33:54;;;;;;;10.87;9.77;;;6.70;99.90;;;;;;4992159;28;20405;-67
2021/11/18 02:36:21;;;;;;;13.20;10.77;;;6.90;99.90;;;;;;4992092;28;20204;-65
2021/11/18 02:38:47;;;;;;;11.40;9.90;;;6.90;99.90;;;;;;4993148;28;20348;-66
2021/11/18 02:41:15;;;;;;;11.23;10.03;;;6.70;99.90;;;;;;4992023;28;20636;-67
2021/11/18 02:43:41;;;;;;;12.03;10.33;;;6.70;99.90;;;;;;4991416;28;20575;-66
2021/11/18 02:46:08;;;;;;;11.87;10.47;;;6.60;99.90;;;;;;4991700;28;20173;-67
2021/11/18 02:48:34;;;;;;;12.03;10.67;;;6.60;99.90;;;;;;4991950;28;20200;-65
2021/11/18 02:51:02;;;;;;;11.70;10.20;;;6.80;99.90;;;;;;4991794;28;20181;-67
2021/11/18 02:53:30;;;;;;;12.37;10.63;;;7.00;99.90;;;;;;4991902;28;20251;-62
2021/11/18 02:55:56;;;;;;;12.67;10.93;;;7.00;99.90;;;;;;4994145;28;20690;-66
2021/11/18 02:58:23;;;;;;;12.80;11.03;;;6.90;99.90;;;;;;4992398;28;20184;-66
2021/11/18 03:01:11;;;;;;;12.00;10.30;;;6.60;99.90;;;;;;4991593;28;20316;-67
2021/11/18 03:03:39;;;;;;;13.23;11.40;;;6.50;99.90;;;;;;4981221;28;20197;-66
2021/11/18 03:06:04;;;;;;;12.23;10.83;;;6.60;99.90;;;;;;4991755;28;20180;-66
2021/11/18 03:08:31;;;;;;;12.10;10.77;;;6.80;99.90;;;;;;4991363;28;20565;-66
2021/11/18 03:10:58;;;;;;;11.60;10.00;;;6.90;99.90;;;;;;4992765;28;20181;-67
2021/11/18 03:13:25;;;;;;;12.87;11.00;;;6.90;99.90;;;;;;4991316;28;20204;-65
2021/11/18 03:15:52;;;;;;;12.70;10.87;;;6.90;99.90;;;;;;4991450;28;20274;-66
2021/11/18 03:18:21;;;;;;;11.17;10.00;;;7.10;99.90;;;;;;4991204;28;20187;-66
2021/11/18 03:20:47;;;;;;;14.27;11.03;;;7.20;99.90;;;;;;4991501;28;20161;-65
2021/11/18 03:23:13;;;;;;;11.60;10.40;;;7.30;99.90;;;;;;4991136;28;20251;-66
2021/11/18 03:25:39;;;;;;;12.30;9.90;;;7.40;99.90;;;;;;4991341;28;20212;-66
2021/11/18 03:28:06;;;;;;;12.47;10.57;;;7.50;99.90;;;;;;4992364;28;20173;-62
2021/11/18 03:30:35;;;;;;;11.73;9.87;;;7.60;99.90;;;;;;4991002;28;20177;-66
2021/11/18 03:33:07;;;;;;;11.90;10.60;;;7.60;99.90;;;;;;4991137;28;20185;-66
2021/11/18 03:35:33;;;;;;;12.17;10.10;;;7.70;99.90;;;;;;4991012;28;20193;-67
2021/11/18 03:38:00;;;;;;;11.83;10.43;;;7.60;99.90;;;;;;4990955;28;20184;-65
2021/11/18 03:40:26;;;;;;;13.47;11.20;;;7.50;99.90;;;;;;4990940;28;20211;-66
2021/11/18 03:42:53;;;;;;;11.80;10.53;;;7.30;99.90;;;;;;4990925;28;20184;-66
2021/11/18 03:45:20;;;;;;;12.83;10.70;;;7.20;99.90;;;;;;4991069;28;20350;-64
2021/11/18 03:47:46;;;;;;;13.60;12.20;;;7.20;99.90;;;;;;4991462;28;20668;-65
2021/11/18 03:50:14;;;;;;;12.93;11.17;;;7.10;99.90;;;;;;4991109;28;20184;-66
2021/11/18 03:52:40;;;;;;;11.70;10.43;;;7.10;99.90;;;;;;4990737;28;20666;-66
2021/11/18 03:55:08;;;;;;;12.07;10.67;;;7.20;99.90;;;;;;4991285;28;20197;-66
2021/11/18 03:57:35;;;;;;;11.83;10.57;;;7.40;99.90;;;;;;4991113;28;20179;-66
2021/11/18 04:00:03;;;;;;;12.13;10.83;;;7.50;99.90;;;;;;4991531;28;20232;-66
2021/11/18 04:02:29;;;;;;;13.07;11.00;;;7.30;99.90;;;;;;4991848;28;20823;-65
2021/11/18 04:05:00;;;;;;;13.33;11.67;;;7.30;99.90;;;;;;4991168;28;20197;-65
2021/11/18 04:07:26;;;;;;;15.20;11.60;;;7.30;99.90;;;;;;4991189;28;20161;-65
2021/11/18 04:09:52;;;;;;;12.03;10.40;;;7.30;99.90;;;;;;4991563;28;20295;-65
2021/11/18 04:12:18;;;;;;;12.20;10.93;;;7.30;99.90;;;;;;4990639;28;20685;-66
2021/11/18 04:14:44;;;;;;;11.97;10.67;;;7.40;99.90;;;;;;4990477;28;20268;-65
2021/11/18 04:17:11;;;;;;;12.93;11.60;;;7.60;99.90;;;;;;4991025;28;20276;-67
2021/11/18 04:19:37;;;;;;;13.70;11.47;;;7.70;99.90;;;;;;4991761;28;20197;-67
2021/11/18 04:22:04;;;;;;;12.10;10.57;;;7.80;99.90;;;;;;4994534;28;20179;-67
2021/11/18 04:24:32;;;;;;;12.63;11.20;;;7.80;99.90;;;;;;4994464;28;20193;-67
2021/11/18 04:26:59;;;;;;;13.27;11.47;;;7.80;99.90;;;;;;5041102;23;20283;-54
2021/11/18 04:29:28;;;;;;;12.70;11.37;;;7.80;99.90;;;;;;5014229;28;20180;-52
2021/11/18 04:32:00;;;;;;;13.00;11.60;;;7.80;99.90;;;;;;5014400;28;20702;-56
2021/11/18 04:34:26;;;;;;;13.20;11.03;;;7.60;99.90;;;;;;5014497;28;20863;-55
2021/11/18 04:36:52;;;;;;;13.43;11.53;;;7.50;99.90;;;;;;5014070;28;20196;-55
2021/11/18 04:39:18;;;;;;;12.90;11.50;;;7.50;99.90;;;;;;5013904;28;20679;-56
2021/11/18 04:41:44;;;;;;;13.40;11.57;;;7.40;99.90;;;;;;5013640;28;20574;-57
2021/11/18 04:44:10;;;;;;;11.73;10.47;;;7.40;99.90;;;;;;5014236;28;20188;-54
2021/11/18 04:46:36;;;;;;;13.70;12.07;;;7.50;99.90;;;;;;5013715;28;20586;-51
2021/11/18 04:49:02;;;;;;;13.10;11.57;;;7.40;99.90;;;;;;5014283;28;20180;-56
2021/11/18 04:51:28;;;;;;;14.50;12.83;;;7.30;99.90;;;;;;5013711;28;20184;-57
2021/11/18 04:53:55;;;;;;;13.73;12.17;;;7.10;99.90;;;;;;5013863;28;20188;-57
2021/11/18 04:56:22;;;;;;;13.40;11.97;;;6.90;99.90;;;;;;5013574;28;20192;-56
2021/11/18 04:58:47;;;;;;;14.33;12.27;;;6.90;99.90;;;;;;5013936;28;20283;-50
2021/11/18 05:01:15;;;;;;;13.90;12.20;;;6.90;99.90;;;;;;5013013;28;20745;-49
2021/11/18 05:03:42;;;;;;;14.17;11.93;;;6.80;99.90;;;;;;5012887;28;20218;-54
2021/11/18 05:06:07;;;;;;;14.63;12.60;;;6.50;99.90;;;;;;5012755;28;20197;-57
2021/11/18 05:08:33;;;;;;;15.63;12.97;;;6.30;99.90;;;;;;5012509;28;20168;-56
2021/11/18 05:10:59;;;;;;;16.10;14.37;;;6.10;99.90;;;;;;5013324;28;20172;-54
2021/11/18 05:13:27;;;;;;;16.73;14.20;;;6.00;99.90;;;;;;5012875;28;20183;-55
2021/11/18 05:15:54;;;;;;;15.03;13.43;;;5.90;99.90;;;;;;5013042;28;20838;-53
2021/11/18 05:18:20;;;;;;;16.83;14.20;;;5.90;99.90;;;;;;5009082;28;20172;-55
2021/11/18 05:20:46;;;;;;;16.30;14.57;;;5.90;99.90;;;;;;5015671;28;20699;-51
2021/11/18 05:23:15;;;;;;;17.10;14.73;;;5.90;99.90;;;;;;5032465;28;20654;-51
2021/11/18 05:25:41;;;;;;;17.27;14.37;;;5.80;99.90;;;;;;5014516;28;20235;-56
2021/11/18 05:28:07;;;;;;;17.83;14.47;;;5.80;99.90;;;;;;5013469;28;20222;-53
2021/11/18 05:30:33;;;;;;;16.63;14.27;;;5.90;99.90;;;;;;5012650;28;20179;-48
2021/11/18 05:33:02;;;;;;;17.57;15.33;;;6.00;99.90;;;;;;5012603;28;20647;-50
2021/11/18 05:35:29;;;;;;;17.57;15.07;;;5.90;99.90;;;;;;5013078;28;20200;-52
2021/11/18 05:37:56;;;;;;;16.83;14.67;;;6.00;99.90;;;;;;5031679;28;20180;-54
2021/11/18 05:40:23;;;;;;;15.83;14.17;;;6.00;99.90;;;;;;5032027;28;20262;-51
2021/11/18 05:42:49;;;;;;;20.00;14.97;;;6.00;99.90;;;;;;5032459;28;20226;-53
2021/11/18 05:45:22;;;;;;;15.97;14.10;;;5.90;99.90;;;;;;5014509;28;20185;-57
2021/11/18 05:47:47;;;;;;;17.93;13.93;;;6.00;99.90;;;;;;5012115;28;20184;-50
2021/11/18 05:50:15;;;;;;;17.27;15.20;;;5.90;99.90;;;;;;5011963;28;20184;-57
2021/11/18 05:52:42;;;;;;;18.77;16.13;;;5.90;99.90;;;;;;5004213;28;20186;-53
2021/11/18 05:55:09;;;;;;;19.40;15.80;;;5.90;99.90;;;;;;5011995;28;20185;-54
2021/11/18 05:57:35;;;;;;;19.00;16.00;;;6.10;99.90;;;;;;5011969;28;20188;-57
2021/11/18 06:00:01;;;;;;;18.07;15.60;;;6.10;99.90;;;;;;5010637;28;20193;-55
2021/11/18 06:02:26;;;;;;;20.67;16.03;;;6.10;99.90;;;;;;5005858;28;20187;-53
2021/11/18 06:04:52;;;;;;;18.73;16.00;;;6.20;99.90;;;;;;5005248;28;20189;-52
2021/11/18 06:07:17;;;;;;;18.90;16.13;;;6.20;99.90;;;;;;5002283;28;20247;-55
2021/11/18 06:09:43;;;;;;;20.77;16.97;;;6.30;99.90;;;;;;5005821;28;20192;-54
2021/11/18 06:12:11;;;;;;;20.07;15.27;;;6.50;99.90;;;;;;5010530;28;20391;-55
2021/11/18 06:14:37;;;;;;;20.13;16.23;;;6.70;99.90;;;;;;5020740;28;20184;-49
2021/11/18 06:17:03;;;;;;;19.73;16.97;;;6.80;99.90;;;;;;5035422;28;20193;-55
2021/11/18 06:19:28;;;;;;;23.17;18.43;;;6.80;99.90;;;;;;5017548;28;20582;-56
2021/11/18 06:21:55;;;;;;;19.33;16.93;;;6.90;99.90;;;;;;5031890;28;20530;-55
2021/11/18 06:24:22;;;;;;;19.10;15.83;;;6.90;99.90;;;;;;5031691;28;20164;-56
2021/11/18 06:26:49;;;;;;;20.20;17.23;;;7.10;99.90;;;;;;5032099;28;20207;-57
2021/11/18 06:29:20;;;;;;;17.83;15.37;;;7.20;99.90;;;;;;5032361;28;20585;-57
2021/11/18 06:31:47;;;;;;;19.03;16.50;;;7.40;99.90;;;;;;5032021;28;20262;-53
2021/11/18 06:34:14;;;;;;;18.10;15.70;;;7.20;99.90;;;;;;5032087;28;20180;-55
2021/11/18 06:36:39;;;;;;;17.90;15.50;;;6.80;99.90;;;;;;5013686;28;20196;-53
2021/11/18 06:39:05;;;;;;;18.73;15.00;;;6.60;99.90;;;;;;5011891;28;20296;-54
2021/11/18 06:41:31;;;;;;;15.63;13.93;;;6.50;99.90;;;;;;5011942;28;20180;-56
2021/11/18 06:43:58;;;;;;;16.93;13.97;;;6.60;99.90;;;;;;5011509;28;20196;-56
2021/11/18 06:46:23;;;;;;;15.23;13.40;;;6.80;99.90;;;;;;5011865;28;20200;-53
2021/11/18 06:48:49;;;;;;;18.30;15.20;;;7.00;99.90;;;;;;5012059;28;20563;-58
2021/11/18 06:51:20;;;;;;;17.83;14.63;;;7.10;99.90;;;;;;5011838;28;20176;-54
2021/11/18 06:53:46;;;;;;;15.63;13.73;;;7.10;99.90;;;;;;5011700;28;20184;-57
2021/11/18 06:56:15;;;;;;;22.10;14.40;;;7.20;99.90;;;;;;5011699;28;20204;-57
2021/11/18 06:58:41;;;;;;;16.13;14.43;;;7.20;99.90;;;;;;5011786;28;20235;-52
2021/11/18 07:01:07;;;;;;;17.10;15.23;;;7.30;99.90;;;;;;5012025;28;20200;-56
2021/11/18 07:03:34;;;;;;;16.57;14.20;;;7.30;99.90;;;;;;5010934;28;20181;-57
2021/11/18 07:06:00;;;;;;;16.17;13.90;;;7.40;99.90;;;;;;5007806;28;20200;-53
2021/11/18 07:08:25;;;;;;;15.37;13.67;;;7.60;99.90;;;;;;5010015;28;20184;-52
2021/11/18 07:10:51;;;;;;;16.03;13.90;;;7.60;99.90;;;;;;5010269;28;20180;-51
2021/11/18 07:13:23;;;;;;;17.10;14.57;;;7.70;99.90;;;;;;5011020;28;20258;-56
2021/11/18 07:15:51;;;;;;;16.00;14.20;;;7.90;99.90;;;;;;5011558;28;20192;-56
2021/11/18 07:18:18;;;;;;;17.63;15.00;;;8.00;99.90;;;;;;5011880;28;20180;-51
2021/11/18 07:20:44;;;;;;;15.97;13.63;;;7.90;99.90;;;;;;5009585;28;20200;-57
2021/11/18 07:23:11;;;;;;;19.43;14.63;;;7.70;99.90;;;;;;5010898;28;20650;-53
2021/11/18 07:25:37;;;;;;;21.63;15.63;;;7.50;99.90;;;;;;5011052;28;20626;-51
2021/11/18 07:28:03;;;;;;;20.63;15.27;;;7.30;99.90;;;;;;5011200;28;20180;-51
2021/11/18 07:30:30;;;;;;;19.23;14.87;;;7.00;99.90;;;;;;5010874;28;20172;-55
2021/11/18 07:32:56;;;;;;;20.23;15.53;;;6.80;99.90;;;;;;5011138;28;20168;-52
2021/11/18 07:35:22;;;;;;;18.60;14.87;;;6.70;99.90;;;;;;5008994;28;20273;-51
2021/11/18 07:37:48;;;;;;;19.07;15.13;;;6.70;99.90;;;;;;5011390;28;20272;-55
2021/11/18 07:40:17;;;;;;;19.30;15.73;;;6.80;99.90;;;;;;5011086;28;20291;-56
2021/11/18 07:42:43;;;;;;;17.57;15.33;;;6.80;99.90;;;;;;5010345;28;20173;-51
2021/11/18 07:45:11;;;;;;;20.50;15.97;;;6.70;99.90;;;;;;5011055;28;20223;-49
2021/11/18 07:47:36;;;;;;;25.93;17.83;;;6.60;99.90;;;;;;5010457;28;20191;-52
2021/11/18 07:50:03;;;;;;;22.10;16.53;;;6.60;99.90;;;;;;5010600;28;20176;-49
2021/11/18 07:52:29;;;;;;;22.70;16.30;;;6.50;99.90;;;;;;5010807;28;20571;-49
2021/11/18 07:54:55;;;;;;;24.73;17.47;;;6.40;99.90;;;;;;5007420;28;20188;-51
2021/11/18 07:57:20;;;;;;;24.67;17.10;;;6.30;99.90;;;;;;5009478;28;20258;-52
2021/11/18 07:59:46;;;;;;;23.93;17.63;;;6.40;99.90;;;;;;5010709;28;20203;-51
2021/11/18 08:02:11;;;;;;;22.20;16.43;;;6.50;99.90;;;;;;5008924;28;20183;-51
2021/11/18 08:04:37;;;;;;;23.13;17.13;;;6.60;99.90;;;;;;5010183;28;20177;-49
2021/11/18 08:07:07;;;;;;;23.60;17.33;;;6.70;99.90;;;;;;5010853;28;20899;-50
2021/11/18 08:09:33;;;;;;;22.83;17.77;;;6.60;99.90;;;;;;5010706;28;20215;-53
2021/11/18 08:12:00;;;;;;;23.13;17.53;;;6.50;99.90;;;;;;5010472;28;20183;-54
2021/11/18 08:14:27;;;;;;;23.50;17.43;;;6.60;99.90;;;;;;5010544;28;20173;-54
2021/11/18 08:16:54;;;;;;;21.37;16.70;;;6.60;99.90;;;;;;5010605;28;20208;-51
2021/11/18 08:19:20;;;;;;;22.47;16.83;;;6.90;99.90;;;;;;5010389;28;20203;-52
2021/11/18 08:21:48;;;;;;;20.37;16.53;;;7.00;99.90;;;;;;5012001;28;20255;-51
2021/11/18 08:24:15;;;;;;;21.77;16.40;;;7.00;99.90;;;;;;5030138;28;20191;-53
2021/11/18 08:26:42;;;;;;;24.20;17.07;;;7.20;99.90;;;;;;5029767;28;20282;-48
2021/11/18 08:29:10;;;;;;;23.10;17.73;;;7.10;99.90;;;;;;5030242;28;20234;-53
2021/11/18 08:31:37;;;;;;;22.23;17.47;;;7.10;99.90;;;;;;5029729;28;20703;-50
2021/11/18 08:34:03;;;;;;;25.77;17.97;;;7.10;99.90;;;;;;5029976;28;20262;-50
2021/11/18 08:36:31;;;;;;;24.87;18.00;;;7.00;99.90;;;;;;5028879;28;20330;-49
2021/11/18 08:38:56;;;;;;;23.00;17.43;;;6.90;99.90;;;;;;5029818;28;20210;-52
2021/11/18 08:41:23;;;;;;;22.37;16.83;;;7.10;99.90;;;;;;5030157;28;20250;-52
2021/11/18 08:43:53;;;;;;;22.37;16.37;;;7.20;99.90;;;;;;5020760;28;20189;-53
2021/11/18 08:46:21;;;;;;;23.73;17.00;;;7.30;99.90;;;;;;5006001;28;20200;-50
2021/11/18 08:48:47;;;;;;;23.13;16.97;;;7.30;99.90;;;;;;5009264;28;20184;-53
2021/11/18 08:51:14;;;;;;;22.03;16.53;;;7.40;99.90;;;;;;5010478;28;20639;-51
2021/11/18 08:53:42;;;;;;;20.10;16.73;;;7.30;99.90;;;;;;5010067;28;20176;-50
2021/11/18 08:56:08;;;;;;;21.23;15.93;;;7.30;99.90;;;;;;5010110;28;20565;-51
2021/11/18 08:58:44;;;;;;;22.73;16.50;;;7.10;99.90;;;;;;5010045;28;20267;-49
2021/11/18 09:01:22;;;;;;;22.37;16.40;;;7.10;99.90;;;;;;5010221;28;20176;-49
2021/11/18 09:03:48;;;;;;;21.30;16.07;;;7.00;99.90;;;;;;5009991;28;20176;-52
2021/11/18 09:06:16;;;;;;;23.93;16.40;;;6.90;99.90;;;;;;5007610;28;20200;-54
2021/11/18 09:08:42;;;;;;;23.03;16.63;;;6.80;99.90;;;;;;5013126;28;20523;-54
2021/11/18 09:11:11;;;;;;;21.10;15.87;;;6.70;99.90;;;;;;5013511;28;20183;-52
2021/11/18 09:13:38;;;;;;;21.80;15.73;;;6.70;99.90;;;;;;5013274;28;20546;-57
2021/11/18 09:16:05;;;;;;;20.23;16.43;;;6.80;99.90;;;;;;5013639;28;20201;-50
2021/11/18 09:18:31;;;;;;;23.03;16.60;;;7.00;99.90;;;;;;5013262;28;20345;-51
2021/11/18 09:20:57;;;;;;;22.53;16.53;;;7.20;99.90;;;;;;5013497;28;20180;-56
2021/11/18 09:23:30;;;;;;;24.40;16.53;;;7.30;99.90;;;;;;5012948;28;20292;-52
2021/11/18 09:25:56;;;;;;;23.47;17.30;;;7.30;99.90;;;;;;5009120;28;20262;-49
2021/11/18 09:28:23;;;;;;;24.03;16.80;;;7.20;99.90;;;;;;5012615;28;20208;-55
2021/11/18 09:30:57;;;;;;;23.40;17.47;;;7.20;99.90;;;;;;5013102;28;20172;-52
2021/11/18 09:33:23;;;;;;;27.17;18.80;;;7.30;99.90;;;;;;5012978;28;20189;-53
2021/11/18 09:35:53;;;;;;;25.33;17.77;;;7.40;99.90;;;;;;5012704;28;20682;-55
2021/11/18 09:38:21;;;;;;;27.67;18.23;;;7.40;99.90;;;;;;5011819;28;20191;-47
2021/11/18 09:40:57;;;;;;;27.93;17.83;;;7.50;99.90;;;;;;5012729;28;20323;-54
2021/11/18 09:43:35;;;;;;;25.37;16.90;;;7.30;99.90;;;;;;5012840;28;20224;-54
2021/11/18 09:46:48;;;;;;;26.00;17.57;;;7.20;99.90;;;;;;5007978;28;20211;-51
2021/11/18 09:49:42;;;;;;;28.40;18.37;;;6.90;99.90;;;;;;4952123;29;20222;-51
2021/11/18 09:52:41;;;;;;;27.10;18.43;;;6.80;99.90;;;;;;4951352;29;20245;-49
2021/11/18 09:55:12;;;;;;;26.07;18.77;;;6.70;99.90;;;;;;4951834;29;20178;-53
2021/11/18 09:57:50;;;;;;;28.90;19.13;;;6.70;99.90;;;;;;4951723;29;20281;-52
2021/11/18 10:00:46;;;;;;;26.40;18.70;;;6.80;99.90;;;;;;4951830;29;20225;-54
2021/11/18 10:03:48;;;;;;;25.47;17.47;;;6.80;99.90;;;;;;4951287;29;20190;-57
2021/11/18 10:06:25;;;;;;;25.33;17.13;;;7.10;99.90;;;;;;4944551;29;20599;-55
2021/11/18 10:09:12;;;;;;;26.80;17.90;;;7.10;99.90;;;;;;4951013;29;20645;-52
2021/11/18 10:11:49;;;;;;;21.87;16.37;;;7.20;99.90;;;;;;4951666;29;20682;-51
2021/11/18 10:14:43;;;;;;;23.57;16.80;;;7.20;99.90;;;;;;4951434;29;20212;-51
2021/11/18 10:17:21;;;;;;;24.63;18.40;;;7.20;99.90;;;;;;4950787;28;20206;-54
2021/11/18 10:19:51;;;;;;;23.87;17.10;;;7.10;99.90;;;;;;4951413;29;20202;-49
2021/11/18 10:22:20;;;;;;;23.50;17.27;;;6.90;99.90;;;;;;4961735;28;20196;-55
2021/11/18 10:24:48;;;;;;;24.97;17.30;;;6.90;99.90;;;;;;5008839;28;20196;-55
2021/11/18 10:30:03;;;;;;;26.20;16.97;;;7.00;99.90;;;;;;5033740;28;20245;-66
2021/11/18 10:32:33;;;;;;;21.10;16.10;;;7.30;99.90;;;;;;5043049;28;20179;-65
2021/11/18 10:35:07;;;;;;;20.70;16.57;;;7.40;99.90;;;;;;5031403;28;20619;-65
2021/11/18 10:37:39;;;;;;;22.40;16.23;;;7.20;99.90;;;;;;5035285;28;20245;-63
2021/11/18 10:40:26;;;;;;;23.37;16.90;;;7.20;99.90;;;;;;5051581;28;20608;-65
2021/11/18 10:43:14;;;;;;;34.03;24.50;;;7.30;99.90;;;;;;5050128;28;20196;-65
2021/11/18 10:45:45;;;;;;;35.20;24.03;;;7.60;99.90;;;;;;5050317;28;20271;-66
2021/11/18 10:48:25;;;;;;;20.07;16.13;;;7.60;99.90;;;;;;5050436;28;20262;-64
2021/11/18 10:50:57;;;;;;;25.70;18.37;;;7.60;99.90;;;;;;5051329;28;20537;-65
2021/11/18 10:53:26;;;;;;;19.60;14.57;;;7.40;99.90;;;;;;5051129;28;20171;-67
2021/11/18 10:56:14;;;;;;;23.60;16.37;;;7.30;99.90;;;;;;5051313;28;20257;-66
2021/11/18 10:58:46;;;;;;;18.10;14.90;;;7.10;99.90;;;;;;5057232;28;20202;-63
2021/11/18 11:01:15;;;;;;;21.97;16.17;;;7.00;99.90;;;;;;5070801;28;20178;-67
2021/11/18 11:03:43;;;;;;;23.07;16.20;;;7.10;99.90;;;;;;5055113;28;20189;-66
2021/11/18 11:06:29;;;;;;;20.33;15.97;;;6.90;99.90;;;;;;5050222;28;20175;-66
2021/11/18 11:09:13;;;;;;;20.20;16.63;;;6.90;99.90;;;;;;5050136;28;20266;-66
2021/11/18 11:12:01;;;;;;;22.47;17.43;;;6.80;99.90;;;;;;5050803;28;20183;-67
2021/11/18 11:15:02;;;;;;;23.63;16.57;;;6.80;99.90;;;;;;5050912;28;20206;-66
2021/11/18 11:17:52;;;;;;;21.20;16.23;;;6.70;99.90;;;;;;5050189;28;20189;-65
2021/11/18 11:20:26;;;;;;;25.30;16.90;;;6.80;99.90;;;;;;5050874;28;20680;-66
2021/11/18 11:23:26;;;;;;;20.83;16.63;;;6.90;99.90;;;;;;5050298;28;20177;-66
2021/11/18 11:26:10;;;;;;;22.40;16.70;;;6.90;99.90;;;;;;5049499;28;20186;-66
2021/11/18 11:28:45;;;;;;;20.77;16.97;;;7.00;99.90;;;;;;5049150;28;20274;-65
2021/11/18 11:31:40;;;;;;;22.57;17.00;;;6.90;99.90;;;;;;5050922;28;20174;-65
2021/11/18 11:34:29;;;;;;;20.60;16.73;;;6.90;99.90;;;;;;5050992;28;20167;-65
2021/11/18 11:37:28;;;;;;;20.53;17.00;;;7.20;99.90;;;;;;5059259;28;20185;-65
2021/11/18 11:39:55;;;;;;;22.57;16.70;;;7.20;99.90;;;;;;5070771;28;20281;-64
2021/11/18 11:43:03;;;;;;;19.20;15.83;;;7.40;99.90;;;;;;5070191;28;20170;-65
2021/11/18 11:45:58;;;;;;;18.97;15.60;;;7.30;99.90;;;;;;5050208;28;20735;-65
2021/11/18 11:48:47;;;;;;;20.37;15.60;;;7.50;99.90;;;;;;5050337;28;20222;-62
2021/11/18 11:51:32;;;;;;;19.43;15.10;;;7.60;99.90;;;;;;5049699;28;20267;-65
2021/11/18 11:54:28;;;;;;;19.70;15.90;;;7.70;99.90;;;;;;5049827;28;20194;-66
2021/11/18 11:56:58;;;;;;;21.67;16.53;;;7.70;99.90;;;;;;5049966;28;20171;-67
2021/11/18 11:59:46;;;;;;;19.13;16.03;;;7.70;99.90;;;;;;5048679;28;20697;-66
2021/11/18 12:02:43;;;;;;;19.77;15.57;;;7.50;99.90;;;;;;5050117;28;20159;-65
2021/11/18 12:05:23;;;;;;;17.90;15.23;;;7.60;99.90;;;;;;5051787;28;20171;-65
2021/11/18 12:08:10;;;;;;;17.97;14.90;;;7.80;99.90;;;;;;5048688;28;20214;-66
2021/11/18 12:11:06;;;;;;;19.00;15.67;;;7.90;99.90;;;;;;5050044;28;20182;-66
2021/11/18 12:13:45;;;;;;;20.60;16.07;;;7.80;99.90;;;;;;5049852;28;20634;-65
2021/11/18 12:16:29;;;;;;;21.13;16.50;;;7.70;99.90;;;;;;5050169;28;20190;-66
2021/11/18 12:19:04;;;;;;;19.70;16.60;;;7.80;99.90;;;;;;5050373;28;20589;-65
2021/11/18 12:21:31;;;;;;;18.20;15.23;;;8.20;99.90;;;;;;5049722;28;20306;-66
2021/11/18 12:24:02;;;;;;;17.30;15.43;;;8.50;99.90;;;;;;5049818;28;20229;-66
2021/11/18 12:26:49;;;;;;;19.60;15.40;;;8.70;99.90;;;;;;5058667;28;20189;-65
2021/11/18 12:29:19;;;;;;;18.20;15.87;;;8.50;99.90;;;;;;5049429;28;20218;-64
2021/11/18 12:32:15;;;;;;;21.67;17.20;;;8.20;99.90;;;;;;5050069;28;20199;-65
2021/11/18 12:35:02;;;;;;;20.40;15.80;;;8.00;99.90;;;;;;5049998;28;20172;-65
2021/11/18 12:37:56;;;;;;;22.80;16.30;;;7.90;99.90;;;;;;5049799;28;20164;-65
2021/11/18 12:40:52;;;;;;;20.33;15.93;;;8.00;99.90;;;;;;5050614;28;20207;-64
2021/11/18 12:43:32;;;;;;;26.37;22.17;;;8.20;99.90;;;;;;5053299;28;20171;-64
2021/11/18 12:46:19;;;;;;;21.50;17.43;;;8.50;99.90;;;;;;5068215;28;20178;-65
2021/11/18 12:49:00;;;;;;;20.03;15.93;;;8.80;99.90;;;;;;5073311;28;20249;-63
2021/11/18 12:52:07;;;;;;;20.20;16.07;;;9.00;99.90;;;;;;5073671;28;20158;-65
2021/11/18 12:54:38;;;;;;;19.80;16.23;;;9.10;99.90;;;;;;5073451;28;20179;-65
2021/11/18 12:57:25;;;;;;;19.00;15.50;;;9.20;99.90;;;;;;5073949;28;20178;-64
2021/11/18 13:00:13;;;;;;;18.97;15.97;;;9.30;99.90;;;;;;5073651;28;20292;-63